sensor_id;sensor_type;location;lat;lon;timestamp;P1;durP1;ratioP1;P2;durP2;ratioP2
41305;SDS011;27051;50.376;19.152;2023-11-21T00:01:55;13.30;;;5.90;;
41305;SDS011;27051;50.376;19.152;2023-11-21T00:07:32;11.80;;;5.50;;
41305;SDS011;27051;50.376;19.152;2023-11-21T00:09:58;12.70;;;5.30;;
41305;SDS011;27051;50.376;19.152;2023-11-21T00:12:25;10.70;;;4.50;;
41305;SDS011;27051;50.376;19.152;2023-11-21T00:15:23;9.50;;;4.60;;
41305;SDS011;27051;50.376;19.152;2023-11-21T00:17:53;10.00;;;4.20;;
41305;SDS011;27051;50.376;19.152;2023-11-21T00:20:52;7.70;;;3.60;;
41305;SDS011;27051;50.376;19.152;2023-11-21T00:23:21;5.90;;;3.20;;
41305;SDS011;27051;50.376;19.152;2023-11-21T00:26:22;7.60;;;2.90;;
41305;SDS011;27051;50.376;19.152;2023-11-21T00:29:00;5.80;;;2.50;;
41305;SDS011;27051;50.376;19.152;2023-11-21T00:31:27;5.50;;;2.60;;
41305;SDS011;27051;50.376;19.152;2023-11-21T00:34:05;8.20;;;3.30;;
41305;SDS011;27051;50.376;19.152;2023-11-21T00:37:03;6.90;;;3.20;;
41305;SDS011;27051;50.376;19.152;2023-11-21T00:42:35;5.60;;;3.10;;
41305;SDS011;27051;50.376;19.152;2023-11-21T00:45:02;5.90;;;2.90;;
41305;SDS011;27051;50.376;19.152;2023-11-21T00:53:01;5.10;;;2.60;;
41305;SDS011;27051;50.376;19.152;2023-11-21T00:55:33;9.60;;;3.60;;
41305;SDS011;27051;50.376;19.152;2023-11-21T00:58:11;6.80;;;2.90;;
41305;SDS011;27051;50.376;19.152;2023-11-21T01:03:46;7.50;;;2.90;;
41305;SDS011;27051;50.376;19.152;2023-11-21T01:06:15;6.50;;;3.30;;
41305;SDS011;27051;50.376;19.152;2023-11-21T01:08:53;7.90;;;3.20;;
41305;SDS011;27051;50.376;19.152;2023-11-21T01:11:50;7.60;;;3.00;;
41305;SDS011;27051;50.376;19.152;2023-11-21T01:17:16;7.90;;;3.30;;
41305;SDS011;27051;50.376;19.152;2023-11-21T01:22:51;7.20;;;3.30;;
41305;SDS011;27051;50.376;19.152;2023-11-21T01:25:18;8.40;;;4.20;;
41305;SDS011;27051;50.376;19.152;2023-11-21T01:27:46;8.50;;;3.90;;
41305;SDS011;27051;50.376;19.152;2023-11-21T01:30:13;7.30;;;3.80;;
41305;SDS011;27051;50.376;19.152;2023-11-21T01:32:47;8.10;;;3.60;;
41305;SDS011;27051;50.376;19.152;2023-11-21T01:35:18;6.10;;;3.70;;
41305;SDS011;27051;50.376;19.152;2023-11-21T01:41:04;11.90;;;4.10;;
41305;SDS011;27051;50.376;19.152;2023-11-21T01:43:53;6.40;;;3.70;;
41305;SDS011;27051;50.376;19.152;2023-11-21T01:46:43;12.30;;;4.10;;
41305;SDS011;27051;50.376;19.152;2023-11-21T01:49:14;9.80;;;3.30;;
41305;SDS011;27051;50.376;19.152;2023-11-21T01:51:45;7.10;;;3.30;;
41305;SDS011;27051;50.376;19.152;2023-11-21T01:54:15;9.10;;;3.50;;
41305;SDS011;27051;50.376;19.152;2023-11-21T02:00:25;8.30;;;3.30;;
41305;SDS011;27051;50.376;19.152;2023-11-21T02:06:00;6.90;;;3.00;;
41305;SDS011;27051;50.376;19.152;2023-11-21T02:08:48;7.60;;;3.10;;
41305;SDS011;27051;50.376;19.152;2023-11-21T02:11:14;8.00;;;3.20;;
41305;SDS011;27051;50.376;19.152;2023-11-21T02:13:41;11.10;;;3.50;;
41305;SDS011;27051;50.376;19.152;2023-11-21T02:16:21;8.40;;;2.90;;
41305;SDS011;27051;50.376;19.152;2023-11-21T02:24:45;9.70;;;3.40;;
41305;SDS011;27051;50.376;19.152;2023-11-21T02:27:12;9.00;;;3.80;;
41305;SDS011;27051;50.376;19.152;2023-11-21T02:29:50;8.40;;;3.70;;
41305;SDS011;27051;50.376;19.152;2023-11-21T02:32:17;7.30;;;4.00;;
41305;SDS011;27051;50.376;19.152;2023-11-21T02:34:45;8.30;;;4.00;;
41305;SDS011;27051;50.376;19.152;2023-11-21T02:37:15;10.50;;;3.90;;
41305;SDS011;27051;50.376;19.152;2023-11-21T02:39:52;10.30;;;4.40;;
41305;SDS011;27051;50.376;19.152;2023-11-21T02:42:43;9.50;;;4.40;;
41305;SDS011;27051;50.376;19.152;2023-11-21T02:45:09;7.90;;;3.80;;
41305;SDS011;27051;50.376;19.152;2023-11-21T02:47:59;8.20;;;4.10;;
41305;SDS011;27051;50.376;19.152;2023-11-21T02:50:26;9.70;;;4.30;;
41305;SDS011;27051;50.376;19.152;2023-11-21T02:56:00;5.90;;;3.30;;
41305;SDS011;27051;50.376;19.152;2023-11-21T02:58:27;7.30;;;3.40;;
41305;SDS011;27051;50.376;19.152;2023-11-21T03:00:57;5.80;;;2.80;;
41305;SDS011;27051;50.376;19.152;2023-11-21T03:03:46;7.00;;;3.10;;
41305;SDS011;27051;50.376;19.152;2023-11-21T03:06:14;10.70;;;4.20;;
41305;SDS011;27051;50.376;19.152;2023-11-21T03:08:58;12.20;;;4.40;;
41305;SDS011;27051;50.376;19.152;2023-11-21T03:11:26;10.80;;;4.40;;
41305;SDS011;27051;50.376;19.152;2023-11-21T03:14:18;15.30;;;5.90;;
41305;SDS011;27051;50.376;19.152;2023-11-21T03:22:33;7.30;;;2.90;;
41305;SDS011;27051;50.376;19.152;2023-11-21T03:25:00;4.90;;;3.30;;
41305;SDS011;27051;50.376;19.152;2023-11-21T03:27:30;7.30;;;3.50;;
41305;SDS011;27051;50.376;19.152;2023-11-21T03:32:41;7.20;;;3.10;;
41305;SDS011;27051;50.376;19.152;2023-11-21T03:35:08;10.30;;;4.60;;
41305;SDS011;27051;50.376;19.152;2023-11-21T03:37:38;11.50;;;5.40;;
41305;SDS011;27051;50.376;19.152;2023-11-21T03:40:27;10.90;;;4.30;;
41305;SDS011;27051;50.376;19.152;2023-11-21T03:48:59;8.70;;;3.80;;
41305;SDS011;27051;50.376;19.152;2023-11-21T03:51:39;9.10;;;3.80;;
41305;SDS011;27051;50.376;19.152;2023-11-21T03:57:11;6.00;;;3.30;;
41305;SDS011;27051;50.376;19.152;2023-11-21T03:59:44;8.90;;;3.50;;
41305;SDS011;27051;50.376;19.152;2023-11-21T04:02:11;9.00;;;3.70;;
41305;SDS011;27051;50.376;19.152;2023-11-21T04:05:12;7.80;;;3.40;;
41305;SDS011;27051;50.376;19.152;2023-11-21T04:07:40;7.00;;;3.60;;
41305;SDS011;27051;50.376;19.152;2023-11-21T04:12:39;9.50;;;3.50;;
41305;SDS011;27051;50.376;19.152;2023-11-21T04:15:12;9.00;;;3.80;;
41305;SDS011;27051;50.376;19.152;2023-11-21T04:18:03;13.70;;;5.00;;
41305;SDS011;27051;50.376;19.152;2023-11-21T04:23:16;12.00;;;3.60;;
41305;SDS011;27051;50.376;19.152;2023-11-21T04:25:47;8.30;;;3.90;;
41305;SDS011;27051;50.376;19.152;2023-11-21T04:28:18;10.80;;;3.80;;
41305;SDS011;27051;50.376;19.152;2023-11-21T04:31:08;8.60;;;3.90;;
41305;SDS011;27051;50.376;19.152;2023-11-21T04:36:35;10.90;;;4.20;;
41305;SDS011;27051;50.376;19.152;2023-11-21T04:39:23;9.10;;;4.10;;
41305;SDS011;27051;50.376;19.152;2023-11-21T04:41:50;12.70;;;4.60;;
41305;SDS011;27051;50.376;19.152;2023-11-21T04:44:26;12.40;;;4.30;;
41305;SDS011;27051;50.376;19.152;2023-11-21T04:50:33;9.40;;;3.80;;
41305;SDS011;27051;50.376;19.152;2023-11-21T04:55:55;8.40;;;4.50;;
41305;SDS011;27051;50.376;19.152;2023-11-21T04:58:39;11.30;;;4.50;;
41305;SDS011;27051;50.376;19.152;2023-11-21T05:01:08;10.50;;;4.30;;
41305;SDS011;27051;50.376;19.152;2023-11-21T05:03:41;10.00;;;3.70;;
41305;SDS011;27051;50.376;19.152;2023-11-21T05:06:26;8.10;;;3.80;;
41305;SDS011;27051;50.376;19.152;2023-11-21T05:09:15;6.80;;;3.50;;
41305;SDS011;27051;50.376;19.152;2023-11-21T05:12:02;9.10;;;3.80;;
41305;SDS011;27051;50.376;19.152;2023-11-21T05:14:28;7.20;;;3.30;;
41305;SDS011;27051;50.376;19.152;2023-11-21T05:16:56;8.20;;;3.80;;
41305;SDS011;27051;50.376;19.152;2023-11-21T05:22:20;8.80;;;4.30;;
41305;SDS011;27051;50.376;19.152;2023-11-21T05:24:56;9.20;;;4.40;;
41305;SDS011;27051;50.376;19.152;2023-11-21T05:27:55;11.20;;;3.80;;
41305;SDS011;27051;50.376;19.152;2023-11-21T05:30:19;7.40;;;3.30;;
41305;SDS011;27051;50.376;19.152;2023-11-21T05:33:15;9.60;;;4.60;;
41305;SDS011;27051;50.376;19.152;2023-11-21T05:36:03;8.20;;;3.90;;
41305;SDS011;27051;50.376;19.152;2023-11-21T05:38:29;8.40;;;4.30;;
41305;SDS011;27051;50.376;19.152;2023-11-21T05:44:06;7.90;;;4.50;;
41305;SDS011;27051;50.376;19.152;2023-11-21T05:46:53;8.30;;;4.50;;
41305;SDS011;27051;50.376;19.152;2023-11-21T05:49:44;12.30;;;5.00;;
41305;SDS011;27051;50.376;19.152;2023-11-21T05:52:13;12.10;;;5.10;;
41305;SDS011;27051;50.376;19.152;2023-11-21T05:58:20;13.80;;;4.90;;
41305;SDS011;27051;50.376;19.152;2023-11-21T06:01:11;13.40;;;5.10;;
41305;SDS011;27051;50.376;19.152;2023-11-21T06:03:58;12.60;;;4.90;;
41305;SDS011;27051;50.376;19.152;2023-11-21T06:09:04;17.40;;;6.00;;
41305;SDS011;27051;50.376;19.152;2023-11-21T06:14:30;12.50;;;5.40;;
41305;SDS011;27051;50.376;19.152;2023-11-21T06:17:03;11.10;;;5.30;;
41305;SDS011;27051;50.376;19.152;2023-11-21T06:19:51;11.00;;;4.50;;
41305;SDS011;27051;50.376;19.152;2023-11-21T06:25:15;11.90;;;5.80;;
41305;SDS011;27051;50.376;19.152;2023-11-21T06:27:44;13.40;;;4.90;;
41305;SDS011;27051;50.376;19.152;2023-11-21T06:33:13;18.30;;;6.40;;
41305;SDS011;27051;50.376;19.152;2023-11-21T06:35:42;16.80;;;6.60;;
41305;SDS011;27051;50.376;19.152;2023-11-21T06:38:31;17.80;;;8.30;;
41305;SDS011;27051;50.376;19.152;2023-11-21T06:44:03;13.40;;;7.00;;
41305;SDS011;27051;50.376;19.152;2023-11-21T06:46:52;15.80;;;6.70;;
41305;SDS011;27051;50.376;19.152;2023-11-21T06:49:24;16.10;;;7.10;;
41305;SDS011;27051;50.376;19.152;2023-11-21T06:52:12;13.70;;;7.20;;
41305;SDS011;27051;50.376;19.152;2023-11-21T06:54:39;18.70;;;8.10;;
41305;SDS011;27051;50.376;19.152;2023-11-21T07:03:12;19.50;;;10.20;;
41305;SDS011;27051;50.376;19.152;2023-11-21T07:05:39;17.10;;;7.70;;
41305;SDS011;27051;50.376;19.152;2023-11-21T07:08:37;15.30;;;6.70;;
41305;SDS011;27051;50.376;19.152;2023-11-21T07:11:10;16.40;;;8.30;;
41305;SDS011;27051;50.376;19.152;2023-11-21T07:13:51;16.40;;;7.90;;
41305;SDS011;27051;50.376;19.152;2023-11-21T07:16:18;17.60;;;8.10;;
41305;SDS011;27051;50.376;19.152;2023-11-21T07:18:45;16.10;;;9.10;;
41305;SDS011;27051;50.376;19.152;2023-11-21T07:21:12;17.70;;;9.30;;
41305;SDS011;27051;50.376;19.152;2023-11-21T07:23:40;25.00;;;12.60;;
41305;SDS011;27051;50.376;19.152;2023-11-21T07:26:07;21.20;;;9.90;;
41305;SDS011;27051;50.376;19.152;2023-11-21T07:28:35;31.60;;;16.60;;
41305;SDS011;27051;50.376;19.152;2023-11-21T07:31:18;29.70;;;15.50;;
41305;SDS011;27051;50.376;19.152;2023-11-21T07:34:06;31.00;;;15.20;;
41305;SDS011;27051;50.376;19.152;2023-11-21T07:36:36;23.00;;;10.70;;
41305;SDS011;27051;50.376;19.152;2023-11-21T07:39:13;26.80;;;10.70;;
41305;SDS011;27051;50.376;19.152;2023-11-21T07:42:02;20.90;;;10.10;;
41305;SDS011;27051;50.376;19.152;2023-11-21T07:44:30;20.20;;;9.30;;
41305;SDS011;27051;50.376;19.152;2023-11-21T07:47:08;15.70;;;8.80;;
41305;SDS011;27051;50.376;19.152;2023-11-21T07:52:43;19.60;;;8.30;;
41305;SDS011;27051;50.376;19.152;2023-11-21T07:55:21;20.00;;;9.70;;
41305;SDS011;27051;50.376;19.152;2023-11-21T07:57:51;19.20;;;9.30;;
41305;SDS011;27051;50.376;19.152;2023-11-21T08:01:00;18.30;;;8.70;;
41305;SDS011;27051;50.376;19.152;2023-11-21T08:03:35;19.30;;;9.60;;
41305;SDS011;27051;50.376;19.152;2023-11-21T08:09:15;26.20;;;10.50;;
41305;SDS011;27051;50.376;19.152;2023-11-21T08:11:53;22.90;;;10.90;;
41305;SDS011;27051;50.376;19.152;2023-11-21T08:17:13;22.60;;;12.10;;
41305;SDS011;27051;50.376;19.152;2023-11-21T08:22:30;24.10;;;13.40;;
41305;SDS011;27051;50.376;19.152;2023-11-21T08:25:00;20.20;;;10.70;;
41305;SDS011;27051;50.376;19.152;2023-11-21T08:33:41;12.80;;;6.80;;
41305;SDS011;27051;50.376;19.152;2023-11-21T08:36:11;10.80;;;5.60;;
41305;SDS011;27051;50.376;19.152;2023-11-21T08:39:00;11.80;;;5.50;;
41305;SDS011;27051;50.376;19.152;2023-11-21T08:41:35;13.90;;;5.20;;
41305;SDS011;27051;50.376;19.152;2023-11-21T08:47:14;10.00;;;5.60;;
41305;SDS011;27051;50.376;19.152;2023-11-21T08:53:18;10.90;;;5.00;;
41305;SDS011;27051;50.376;19.152;2023-11-21T08:55:45;13.70;;;5.30;;
41305;SDS011;27051;50.376;19.152;2023-11-21T08:58:36;11.80;;;5.70;;
41305;SDS011;27051;50.376;19.152;2023-11-21T09:03:40;20.90;;;9.80;;
41305;SDS011;27051;50.376;19.152;2023-11-21T09:06:11;17.60;;;7.10;;
41305;SDS011;27051;50.376;19.152;2023-11-21T09:08:58;7.80;;;4.50;;
41305;SDS011;27051;50.376;19.152;2023-11-21T09:11:28;5.80;;;2.20;;
41305;SDS011;27051;50.376;19.152;2023-11-21T09:14:24;3.80;;;2.00;;
41305;SDS011;27051;50.376;19.152;2023-11-21T09:25:51;10.30;;;5.10;;
41305;SDS011;27051;50.376;19.152;2023-11-21T09:28:21;29.30;;;14.30;;
41305;SDS011;27051;50.376;19.152;2023-11-21T09:30:58;29.60;;;13.90;;
41305;SDS011;27051;50.376;19.152;2023-11-21T09:33:35;29.70;;;13.80;;
41305;SDS011;27051;50.376;19.152;2023-11-21T09:36:05;26.00;;;11.70;;
41305;SDS011;27051;50.376;19.152;2023-11-21T09:38:38;17.50;;;9.40;;
41305;SDS011;27051;50.376;19.152;2023-11-21T09:41:07;22.40;;;11.70;;
41305;SDS011;27051;50.376;19.152;2023-11-21T09:44:03;16.20;;;7.60;;
41305;SDS011;27051;50.376;19.152;2023-11-21T09:49:19;14.50;;;7.10;;
41305;SDS011;27051;50.376;19.152;2023-11-21T09:51:50;19.30;;;8.30;;
41305;SDS011;27051;50.376;19.152;2023-11-21T09:54:33;23.30;;;10.50;;
41305;SDS011;27051;50.376;19.152;2023-11-21T09:57:10;18.60;;;8.90;;
41305;SDS011;27051;50.376;19.152;2023-11-21T10:02:50;16.90;;;7.60;;
41305;SDS011;27051;50.376;19.152;2023-11-21T10:08:17;15.00;;;6.60;;
41305;SDS011;27051;50.376;19.152;2023-11-21T10:11:04;12.90;;;6.00;;
41305;SDS011;27051;50.376;19.152;2023-11-21T10:13:38;16.40;;;6.80;;
41305;SDS011;27051;50.376;19.152;2023-11-21T10:16:26;18.60;;;8.00;;
41305;SDS011;27051;50.376;19.152;2023-11-21T10:19:15;17.20;;;7.60;;
41305;SDS011;27051;50.376;19.152;2023-11-21T10:22:05;16.40;;;7.70;;
41305;SDS011;27051;50.376;19.152;2023-11-21T10:24:42;16.50;;;7.90;;
41305;SDS011;27051;50.376;19.152;2023-11-21T10:27:12;16.10;;;7.00;;
41305;SDS011;27051;50.376;19.152;2023-11-21T10:29:51;16.40;;;7.50;;
41305;SDS011;27051;50.376;19.152;2023-11-21T10:37:59;14.90;;;8.20;;
41305;SDS011;27051;50.376;19.152;2023-11-21T10:55:58;19.00;;;9.90;;
41305;SDS011;27051;50.376;19.152;2023-11-21T10:58:48;15.60;;;6.90;;
41305;SDS011;27051;50.376;19.152;2023-11-21T11:01:17;9.20;;;4.70;;
41305;SDS011;27051;50.376;19.152;2023-11-21T11:04:26;11.40;;;5.30;;
41305;SDS011;27051;50.376;19.152;2023-11-21T11:12:48;14.50;;;5.50;;
41305;SDS011;27051;50.376;19.152;2023-11-21T11:15:45;13.60;;;6.50;;
41305;SDS011;27051;50.376;19.152;2023-11-21T11:18:38;12.60;;;6.10;;
41305;SDS011;27051;50.376;19.152;2023-11-21T11:39:28;11.60;;;4.60;;
41305;SDS011;27051;50.376;19.152;2023-11-21T11:43:08;13.00;;;5.80;;
41305;SDS011;27051;50.376;19.152;2023-11-21T11:45:32;10.80;;;5.20;;
41305;SDS011;27051;50.376;19.152;2023-11-21T11:48:03;12.60;;;5.30;;
41305;SDS011;27051;50.376;19.152;2023-11-21T11:50:35;16.60;;;6.70;;
41305;SDS011;27051;50.376;19.152;2023-11-21T11:59:08;28.40;;;12.70;;
41305;SDS011;27051;50.376;19.152;2023-11-21T12:04:56;15.10;;;6.50;;
41305;SDS011;27051;50.376;19.152;2023-11-21T12:10:31;19.10;;;6.50;;
41305;SDS011;27051;50.376;19.152;2023-11-21T12:16:18;18.20;;;7.20;;
41305;SDS011;27051;50.376;19.152;2023-11-21T12:18:46;18.80;;;9.10;;
41305;SDS011;27051;50.376;19.152;2023-11-21T12:21:26;23.20;;;9.70;;
41305;SDS011;27051;50.376;19.152;2023-11-21T12:24:06;17.60;;;7.10;;
41305;SDS011;27051;50.376;19.152;2023-11-21T12:35:10;25.90;;;12.30;;
41305;SDS011;27051;50.376;19.152;2023-11-21T12:37:42;30.20;;;14.00;;
41305;SDS011;27051;50.376;19.152;2023-11-21T12:40:30;25.80;;;10.90;;
41305;SDS011;27051;50.376;19.152;2023-11-21T12:43:20;27.60;;;12.20;;
41305;SDS011;27051;50.376;19.152;2023-11-21T12:45:54;26.90;;;12.40;;
41305;SDS011;27051;50.376;19.152;2023-11-21T12:51:41;18.60;;;8.60;;
41305;SDS011;27051;50.376;19.152;2023-11-21T12:54:29;20.50;;;9.00;;
41305;SDS011;27051;50.376;19.152;2023-11-21T13:00:17;24.20;;;11.70;;
41305;SDS011;27051;50.376;19.152;2023-11-21T13:06:09;13.70;;;6.30;;
41305;SDS011;27051;50.376;19.152;2023-11-21T13:08:37;24.30;;;8.10;;
41305;SDS011;27051;50.376;19.152;2023-11-21T13:17:01;19.60;;;7.70;;
41305;SDS011;27051;50.376;19.152;2023-11-21T13:22:48;12.00;;;5.70;;
41305;SDS011;27051;50.376;19.152;2023-11-21T13:37:03;30.20;;;10.50;;
41305;SDS011;27051;50.376;19.152;2023-11-21T13:42:18;35.30;;;12.70;;
41305;SDS011;27051;50.376;19.152;2023-11-21T13:47:55;19.00;;;8.00;;
41305;SDS011;27051;50.376;19.152;2023-11-21T13:56:07;15.80;;;7.10;;
41305;SDS011;27051;50.376;19.152;2023-11-21T13:58:47;20.30;;;7.80;;
41305;SDS011;27051;50.376;19.152;2023-11-21T14:01:32;25.30;;;10.10;;
41305;SDS011;27051;50.376;19.152;2023-11-21T14:04:23;18.20;;;7.10;;
41305;SDS011;27051;50.376;19.152;2023-11-21T14:09:59;24.00;;;10.20;;
41305;SDS011;27051;50.376;19.152;2023-11-21T14:12:47;33.80;;;10.40;;
41305;SDS011;27051;50.376;19.152;2023-11-21T14:15:34;23.20;;;10.50;;
41305;SDS011;27051;50.376;19.152;2023-11-21T14:24:42;31.30;;;12.90;;
41305;SDS011;27051;50.376;19.152;2023-11-21T14:27:22;30.80;;;13.60;;
41305;SDS011;27051;50.376;19.152;2023-11-21T14:32:34;38.90;;;14.60;;
41305;SDS011;27051;50.376;19.152;2023-11-21T14:35:30;48.00;;;17.80;;
41305;SDS011;27051;50.376;19.152;2023-11-21T14:38:05;45.10;;;20.10;;
41305;SDS011;27051;50.376;19.152;2023-11-21T14:40:56;39.40;;;17.70;;
41305;SDS011;27051;50.376;19.152;2023-11-21T14:43:24;42.20;;;19.40;;
41305;SDS011;27051;50.376;19.152;2023-11-21T14:46:05;41.80;;;20.50;;
41305;SDS011;27051;50.376;19.152;2023-11-21T14:48:33;33.00;;;16.00;;
41305;SDS011;27051;50.376;19.152;2023-11-21T14:51:00;35.80;;;18.00;;
41305;SDS011;27051;50.376;19.152;2023-11-21T14:53:31;37.70;;;18.80;;
41305;SDS011;27051;50.376;19.152;2023-11-21T14:56:01;55.60;;;26.20;;
41305;SDS011;27051;50.376;19.152;2023-11-21T14:58:28;73.90;;;33.60;;
41305;SDS011;27051;50.376;19.152;2023-11-21T15:00:59;135.30;;;79.10;;
41305;SDS011;27051;50.376;19.152;2023-11-21T15:03:49;82.70;;;38.20;;
41305;SDS011;27051;50.376;19.152;2023-11-21T15:09:21;61.90;;;31.30;;
41305;SDS011;27051;50.376;19.152;2023-11-21T15:11:48;52.10;;;27.00;;
41305;SDS011;27051;50.376;19.152;2023-11-21T15:14:38;55.70;;;28.00;;
41305;SDS011;27051;50.376;19.152;2023-11-21T15:20:18;58.10;;;34.90;;
41305;SDS011;27051;50.376;19.152;2023-11-21T15:23:04;54.00;;;31.20;;
41305;SDS011;27051;50.376;19.152;2023-11-21T15:25:32;56.90;;;33.30;;
41305;SDS011;27051;50.376;19.152;2023-11-21T15:27:59;91.40;;;54.00;;
41305;SDS011;27051;50.376;19.152;2023-11-21T15:30:32;68.90;;;40.90;;
41305;SDS011;27051;50.376;19.152;2023-11-21T15:33:12;65.80;;;37.40;;
41305;SDS011;27051;50.376;19.152;2023-11-21T15:35:51;91.40;;;53.80;;
41305;SDS011;27051;50.376;19.152;2023-11-21T15:38:35;90.10;;;52.00;;
41305;SDS011;27051;50.376;19.152;2023-11-21T15:41:22;79.00;;;45.20;;
41305;SDS011;27051;50.376;19.152;2023-11-21T15:44:21;85.80;;;47.50;;
41305;SDS011;27051;50.376;19.152;2023-11-21T15:50:06;74.50;;;42.40;;
41305;SDS011;27051;50.376;19.152;2023-11-21T15:52:45;81.60;;;48.90;;
41305;SDS011;27051;50.376;19.152;2023-11-21T15:55:15;80.70;;;47.70;;
41305;SDS011;27051;50.376;19.152;2023-11-21T15:57:47;75.80;;;41.60;;
41305;SDS011;27051;50.376;19.152;2023-11-21T16:03:16;63.80;;;38.10;;
41305;SDS011;27051;50.376;19.152;2023-11-21T16:05:45;61.70;;;36.90;;
41305;SDS011;27051;50.376;19.152;2023-11-21T16:08:12;82.20;;;37.70;;
41305;SDS011;27051;50.376;19.152;2023-11-21T16:10:42;33.70;;;17.00;;
41305;SDS011;27051;50.376;19.152;2023-11-21T16:13:15;23.90;;;12.30;;
41305;SDS011;27051;50.376;19.152;2023-11-21T16:15:45;24.10;;;13.10;;
41305;SDS011;27051;50.376;19.152;2023-11-21T16:18:25;25.10;;;12.60;;
41305;SDS011;27051;50.376;19.152;2023-11-21T16:20:52;20.90;;;11.00;;
41305;SDS011;27051;50.376;19.152;2023-11-21T16:23:19;19.60;;;10.60;;
41305;SDS011;27051;50.376;19.152;2023-11-21T16:25:59;18.40;;;9.40;;
41305;SDS011;27051;50.376;19.152;2023-11-21T16:28:27;16.70;;;8.40;;
41305;SDS011;27051;50.376;19.152;2023-11-21T16:31:42;14.60;;;8.10;;
41305;SDS011;27051;50.376;19.152;2023-11-21T16:34:11;18.50;;;9.00;;
41305;SDS011;27051;50.376;19.152;2023-11-21T16:36:41;19.10;;;8.80;;
41305;SDS011;27051;50.376;19.152;2023-11-21T16:39:12;20.30;;;9.90;;
41305;SDS011;27051;50.376;19.152;2023-11-21T16:42:10;17.80;;;8.90;;
41305;SDS011;27051;50.376;19.152;2023-11-21T16:44:38;21.60;;;9.80;;
41305;SDS011;27051;50.376;19.152;2023-11-21T16:47:34;19.60;;;9.40;;
41305;SDS011;27051;50.376;19.152;2023-11-21T16:50:42;21.00;;;9.40;;
41305;SDS011;27051;50.376;19.152;2023-11-21T16:53:10;19.60;;;10.00;;
41305;SDS011;27051;50.376;19.152;2023-11-21T16:55:50;27.20;;;11.40;;
41305;SDS011;27051;50.376;19.152;2023-11-21T17:01:07;28.40;;;12.30;;
41305;SDS011;27051;50.376;19.152;2023-11-21T17:06:29;23.00;;;10.70;;
41305;SDS011;27051;50.376;19.152;2023-11-21T17:09:00;21.50;;;11.20;;
41305;SDS011;27051;50.376;19.152;2023-11-21T17:14:09;24.50;;;10.90;;
41305;SDS011;27051;50.376;19.152;2023-11-21T17:16:56;22.70;;;11.80;;
41305;SDS011;27051;50.376;19.152;2023-11-21T17:19:47;23.20;;;11.70;;
41305;SDS011;27051;50.376;19.152;2023-11-21T17:22:14;23.30;;;11.90;;
41305;SDS011;27051;50.376;19.152;2023-11-21T17:27:21;22.60;;;10.50;;
41305;SDS011;27051;50.376;19.152;2023-11-21T17:32:26;17.40;;;7.90;;
41305;SDS011;27051;50.376;19.152;2023-11-21T17:35:13;13.90;;;6.70;;
41305;SDS011;27051;50.376;19.152;2023-11-21T17:37:44;14.30;;;6.80;;
41305;SDS011;27051;50.376;19.152;2023-11-21T17:40:11;9.90;;;5.50;;
41305;SDS011;27051;50.376;19.152;2023-11-21T17:42:41;9.70;;;5.40;;
41305;SDS011;27051;50.376;19.152;2023-11-21T17:47:59;13.90;;;6.20;;
41305;SDS011;27051;50.376;19.152;2023-11-21T17:50:51;13.10;;;6.30;;
41305;SDS011;27051;50.376;19.152;2023-11-21T17:56:20;13.10;;;6.40;;
41305;SDS011;27051;50.376;19.152;2023-11-21T17:58:47;14.40;;;6.30;;
41305;SDS011;27051;50.376;19.152;2023-11-21T18:01:25;15.60;;;6.80;;
41305;SDS011;27051;50.376;19.152;2023-11-21T18:03:52;16.20;;;6.90;;
41305;SDS011;27051;50.376;19.152;2023-11-21T18:06:28;16.00;;;7.30;;
41305;SDS011;27051;50.376;19.152;2023-11-21T18:08:55;16.00;;;7.20;;
41305;SDS011;27051;50.376;19.152;2023-11-21T18:11:22;17.30;;;7.60;;
41305;SDS011;27051;50.376;19.152;2023-11-21T18:14:07;16.30;;;7.70;;
41305;SDS011;27051;50.376;19.152;2023-11-21T18:16:35;13.60;;;7.50;;
41305;SDS011;27051;50.376;19.152;2023-11-21T18:19:30;20.00;;;9.40;;
41305;SDS011;27051;50.376;19.152;2023-11-21T18:22:17;15.80;;;7.90;;
41305;SDS011;27051;50.376;19.152;2023-11-21T18:24:44;18.90;;;8.50;;
41305;SDS011;27051;50.376;19.152;2023-11-21T18:27:11;14.60;;;7.30;;
41305;SDS011;27051;50.376;19.152;2023-11-21T18:29:39;16.10;;;6.90;;
41305;SDS011;27051;50.376;19.152;2023-11-21T18:32:19;17.00;;;7.90;;
41305;SDS011;27051;50.376;19.152;2023-11-21T18:34:46;13.50;;;6.70;;
41305;SDS011;27051;50.376;19.152;2023-11-21T18:37:16;11.10;;;6.20;;
41305;SDS011;27051;50.376;19.152;2023-11-21T18:39:46;10.90;;;5.90;;
41305;SDS011;27051;50.376;19.152;2023-11-21T18:42:14;12.20;;;6.40;;
41305;SDS011;27051;50.376;19.152;2023-11-21T18:45:02;11.80;;;6.20;;
41305;SDS011;27051;50.376;19.152;2023-11-21T18:47:49;12.50;;;6.10;;
41305;SDS011;27051;50.376;19.152;2023-11-21T18:53:03;13.90;;;6.70;;
41305;SDS011;27051;50.376;19.152;2023-11-21T18:55:34;13.30;;;6.20;;
41305;SDS011;27051;50.376;19.152;2023-11-21T19:01:08;16.20;;;7.40;;
41305;SDS011;27051;50.376;19.152;2023-11-21T19:03:35;12.10;;;5.60;;
41305;SDS011;27051;50.376;19.152;2023-11-21T19:06:10;18.40;;;7.60;;
41305;SDS011;27051;50.376;19.152;2023-11-21T19:08:40;16.60;;;7.00;;
41305;SDS011;27051;50.376;19.152;2023-11-21T19:11:17;18.30;;;7.90;;
41305;SDS011;27051;50.376;19.152;2023-11-21T19:13:45;14.70;;;6.60;;
41305;SDS011;27051;50.376;19.152;2023-11-21T19:16:12;16.80;;;6.90;;
41305;SDS011;27051;50.376;19.152;2023-11-21T19:18:42;10.80;;;6.10;;
41305;SDS011;27051;50.376;19.152;2023-11-21T19:21:20;11.10;;;5.90;;
41305;SDS011;27051;50.376;19.152;2023-11-21T19:23:56;10.90;;;6.50;;
41305;SDS011;27051;50.376;19.152;2023-11-21T19:26:23;15.30;;;6.90;;
41305;SDS011;27051;50.376;19.152;2023-11-21T19:28:50;14.60;;;6.10;;
41305;SDS011;27051;50.376;19.152;2023-11-21T19:31:18;18.20;;;9.20;;
41305;SDS011;27051;50.376;19.152;2023-11-21T19:34:06;19.30;;;9.00;;
41305;SDS011;27051;50.376;19.152;2023-11-21T19:42:33;11.70;;;5.90;;
41305;SDS011;27051;50.376;19.152;2023-11-21T19:47:47;10.90;;;5.20;;
41305;SDS011;27051;50.376;19.152;2023-11-21T19:56:04;12.80;;;5.50;;
41305;SDS011;27051;50.376;19.152;2023-11-21T19:58:39;15.90;;;6.80;;
41305;SDS011;27051;50.376;19.152;2023-11-21T20:01:09;14.40;;;6.70;;
41305;SDS011;27051;50.376;19.152;2023-11-21T20:06:56;13.50;;;6.70;;
41305;SDS011;27051;50.376;19.152;2023-11-21T20:09:47;14.40;;;7.20;;
41305;SDS011;27051;50.376;19.152;2023-11-21T20:12:25;26.00;;;14.50;;
41305;SDS011;27051;50.376;19.152;2023-11-21T20:15:03;14.50;;;6.30;;
41305;SDS011;27051;50.376;19.152;2023-11-21T20:18:01;15.60;;;5.70;;
41305;SDS011;27051;50.376;19.152;2023-11-21T20:20:36;17.30;;;5.20;;
41305;SDS011;27051;50.376;19.152;2023-11-21T20:25:53;8.10;;;4.70;;
41305;SDS011;27051;50.376;19.152;2023-11-21T20:28:41;10.70;;;4.50;;
41305;SDS011;27051;50.376;19.152;2023-11-21T20:31:08;14.10;;;5.40;;
41305;SDS011;27051;50.376;19.152;2023-11-21T20:33:35;10.50;;;5.00;;
41305;SDS011;27051;50.376;19.152;2023-11-21T20:36:02;14.30;;;6.00;;
41305;SDS011;27051;50.376;19.152;2023-11-21T20:38:50;12.20;;;5.10;;
41305;SDS011;27051;50.376;19.152;2023-11-21T20:44:03;13.30;;;5.90;;